Time;durP1;ratioP1;P1;durP2;ratioP2;P2;SDS_P1;SDS_P2;PMS_P1;PMS_P2;Temp;Humidity;BMP_temperature;BMP_pressure;BME280_temperature;BME280_humidity;BME280_pressure;Samples;Min_cycle;Max_cycle;Signal;HPM_P1;HPM_P2
2022/04/14 00:10:42;;;;;;;39.27;17.27;;;;;;;8.79;100.00;99584.03;31393646;28;20400;-76
2022/04/14 00:25:44;;;;;;;43.93;18.57;;;;;;;8.73;100.00;99591.16;31366129;28;20060;-77
2022/04/14 00:40:47;;;;;;;47.60;20.47;;;;;;;8.64;100.00;99593.63;31376364;28;20048;-76
2022/04/14 00:55:50;;;;;;;43.47;18.67;;;;;;;8.57;100.00;99596.47;31373165;28;20055;-76
2022/04/14 01:10:54;;;;;;;40.67;18.37;;;;;;;8.51;100.00;99613.19;31363036;28;20135;-76
2022/04/14 01:26:02;;;;;;;44.70;18.33;;;;;;;8.50;100.00;99608.22;31361434;28;20051;-77
2022/04/14 01:41:17;;;;;;;32.77;16.93;;;;;;;8.50;100.00;99638.69;31315373;28;20050;-76
2022/04/14 01:56:19;;;;;;;39.27;17.27;;;;;;;8.40;100.00;99655.91;31340523;28;20191;-75
2022/04/14 02:11:21;;;;;;;44.63;18.60;;;;;;;8.34;100.00;99662.97;31347008;28;20481;-75
2022/04/14 02:26:23;;;;;;;40.10;16.97;;;;;;;8.27;100.00;99673.13;31340285;28;20057;-74
2022/04/14 02:41:25;;;;;;;36.83;17.07;;;;;;;8.21;100.00;99702.56;31344358;28;20068;-76
2022/04/14 02:56:27;;;;;;;39.33;17.87;;;;;;;8.19;100.00;99704.94;31361089;28;20049;-76
2022/04/14 03:11:28;;;;;;;31.23;15.07;;;;;;;8.23;100.00;99726.50;31392787;28;20061;-76
2022/04/14 03:26:30;;;;;;;36.43;15.87;;;;;;;8.23;100.00;99732.69;31368744;28;20053;-75
2022/04/14 03:41:32;;;;;;;36.80;15.97;;;;;;;8.29;100.00;99749.94;31342238;28;20075;-75
2022/04/14 03:56:34;;;;;;;42.93;16.53;;;;;;;8.33;100.00;99775.03;31366743;28;20053;-75
2022/04/14 04:11:36;;;;;;;40.00;15.83;;;;;;;8.34;100.00;99811.72;31392310;28;20044;-76
2022/04/14 04:26:38;;;;;;;37.43;15.40;;;;;;;8.34;100.00;99825.25;31368753;28;20444;-76
2022/04/14 04:41:40;;;;;;;32.67;15.47;;;;;;;8.47;100.00;99838.97;31381555;28;20053;-76
2022/04/14 04:56:42;;;;;;;39.50;15.13;;;;;;;8.35;100.00;99878.16;31484771;28;20049;-76
2022/04/14 05:11:43;;;;;;;34.53;14.07;;;;;;;8.37;100.00;99899.38;31465575;28;20067;-76
2022/04/14 05:26:45;;;;;;;31.93;13.83;;;;;;;8.27;100.00;99917.25;31478296;28;20045;-76
2022/04/14 05:41:47;;;;;;;26.43;14.10;;;;;;;8.22;100.00;99933.94;31456821;28;20059;-76
2022/04/14 05:56:49;;;;;;;31.40;13.60;;;;;;;8.27;100.00;99946.25;31451771;28;20063;-76
2022/04/14 06:11:51;;;;;;;30.50;13.30;;;;;;;8.20;100.00;99957.94;31470225;28;20084;-75
2022/04/14 06:26:55;;;;;;;24.67;13.63;;;;;;;8.35;100.00;99978.22;31513723;28;20045;-76
2022/04/14 06:42:05;;;;;;;29.57;13.43;;;;;;;8.42;100.00;99967.34;31505009;28;20048;-76
2022/04/14 06:57:20;;;;;;;25.50;12.63;;;;;;;8.45;100.00;99990.88;31524315;28;20051;-78
2022/04/14 07:12:22;;;;;;;23.53;11.93;;;;;;;8.53;100.00;100011.22;31468238;28;20158;-76
2022/04/14 07:27:24;;;;;;;22.60;12.17;;;;;;;8.63;100.00;100030.44;31486249;28;20147;-78
2022/04/14 07:42:33;;;;;;;22.17;12.17;;;;;;;8.67;100.00;100048.19;31529912;28;20042;-77
2022/04/14 07:57:35;;;;;;;19.07;10.73;;;;;;;8.92;100.00;100058.69;31496392;28;20391;-77
2022/04/14 08:12:37;;;;;;;22.67;10.83;;;;;;;9.10;100.00;100070.03;31465901;28;20072;-77
2022/04/14 08:27:39;;;;;;;20.60;9.73;;;;;;;9.40;100.00;100088.16;31484562;28;20135;-78
2022/04/14 08:42:50;;;;;;;22.20;11.83;;;;;;;9.90;100.00;100076.53;31482748;28;20057;-78
2022/04/14 08:57:54;;;;;;;24.10;11.10;;;;;;;9.89;100.00;100092.03;31513876;28;20048;-78
2022/04/14 09:12:56;;;;;;;18.17;10.10;;;;;;;9.87;100.00;100113.38;31524022;28;20048;-77
2022/04/14 09:28:08;;;;;;;18.50;10.87;;;;;;;9.81;100.00;100112.28;31514211;28;20117;-78
2022/04/14 09:43:17;;;;;;;18.33;10.30;;;;;;;9.84;100.00;100130.44;31499752;28;20045;-78
2022/04/14 09:58:23;;;;;;;15.70;9.57;;;;;;;9.89;100.00;100145.50;31507404;28;20056;-78
2022/04/14 10:13:36;;;;;;;17.27;9.57;;;;;;;10.15;100.00;100169.06;31496520;28;20052;-76
2022/04/14 10:28:39;;;;;;;21.37;10.43;;;;;;;10.28;100.00;100177.41;31508588;28;20419;-75
2022/04/14 10:43:44;;;;;;;14.93;9.40;;;;;;;10.11;100.00;100192.00;31489727;28;20048;-75
2022/04/14 10:58:53;;;;;;;16.43;9.37;;;;;;;10.36;100.00;100211.38;31456777;28;20052;-77
2022/04/14 11:13:58;;;;;;;17.03;9.47;;;;;;;10.54;100.00;100209.13;31476118;28;20416;-73
2022/04/14 11:29:02;;;;;;;16.40;9.13;;;;;;;10.57;100.00;100240.88;31486358;28;20530;-74
2022/04/14 11:44:15;;;;;;;20.60;11.37;;;;;;;10.50;100.00;100254.56;31478501;28;20439;-81
2022/04/14 11:59:18;;;;;;;13.10;8.53;;;;;;;10.31;100.00;100263.41;31506036;28;20136;-81
2022/04/14 12:14:21;;;;;;;14.87;8.33;;;;;;;10.15;100.00;100276.81;31497782;28;20048;-81
2022/04/14 12:29:23;;;;;;;18.53;9.27;;;;;;;10.18;100.00;100281.41;31494624;28;20135;-82
2022/04/14 12:44:25;;;;;;;16.87;8.93;;;;;;;10.17;100.00;100296.13;31467771;28;20048;-81
2022/04/14 12:59:30;;;;;;;16.67;10.27;;;;;;;10.15;100.00;100309.38;31457565;28;20164;-77
2022/04/14 13:14:33;;;;;;;13.97;8.93;;;;;;;10.18;100.00;100319.38;31455517;28;20068;-77
2022/04/14 13:46:35;;;;;;;15.90;8.40;;;;;;;10.17;100.00;100339.53;31339176;28;20048;-76
2022/04/14 14:01:37;;;;;;;13.33;8.63;;;;;;;10.37;100.00;100345.88;31343991;28;20048;-74
2022/04/14 14:16:39;;;;;;;15.37;9.00;;;;;;;10.77;100.00;100386.75;31332093;28;20056;-83
2022/04/14 14:31:44;;;;;;;16.07;8.87;;;;;;;10.89;100.00;100367.16;31370676;28;20048;-81
2022/04/14 14:46:46;;;;;;;14.47;8.53;;;;;;;10.55;100.00;100394.47;31418904;28;20060;-86
2022/04/14 15:01:50;;;;;;;14.20;7.77;;;;;;;10.35;100.00;100407.16;31412406;28;20139;-85
2022/04/14 15:16:53;;;;;;;18.93;9.20;;;;;;;10.32;100.00;100432.41;31380516;28;20060;-77
2022/04/14 15:31:55;;;;;;;12.90;7.27;;;;;;;10.32;100.00;100441.31;31422146;28;20050;-86
2022/04/14 15:47:01;;;;;;;13.40;7.70;;;;;;;10.31;100.00;100447.91;31365178;28;20060;-83
2022/04/14 16:02:03;;;;;;;15.97;8.30;;;;;;;10.25;100.00;100473.97;31435364;28;20519;-84
2022/04/14 16:17:05;;;;;;;12.67;8.07;;;;;;;10.21;100.00;100494.94;31359528;28;20057;-76
2022/04/14 16:32:07;;;;;;;15.20;8.67;;;;;;;10.07;100.00;100509.41;31365024;28;20048;-76
2022/04/14 16:47:10;;;;;;;12.03;7.80;;;;;;;10.04;100.00;100531.16;31353511;28;20068;-77
2022/04/14 17:02:12;;;;;;;16.27;8.83;;;;;;;9.96;100.00;100556.78;31350893;28;20535;-76
2022/04/14 17:17:14;;;;;;;15.43;8.50;;;;;;;9.89;100.00;100574.69;31379695;28;20916;-80
2022/04/14 17:32:16;;;;;;;15.93;9.07;;;;;;;9.93;100.00;100580.84;31356960;28;21053;-80
2022/04/14 17:47:46;;;;;;;20.80;9.90;;;;;;;9.82;100.00;100588.31;31406255;28;20056;-79
2022/04/14 18:03:05;;;;;;;18.20;9.93;;;;;;;9.54;100.00;100580.41;31413967;28;20056;-81
2022/04/14 18:18:14;;;;;;;38.00;13.87;;;;;;;9.35;100.00;100594.50;31383686;28;20080;-81
2022/04/14 18:33:16;;;;;;;17.43;10.03;;;;;;;9.29;100.00;100591.44;31350458;28;20103;-81
2022/04/14 18:48:21;;;;;;;18.50;10.27;;;;;;;9.28;100.00;100599.94;31344542;28;20057;-82
2022/04/14 19:03:23;;;;;;;13.53;7.30;;;;;;;9.39;100.00;100614.22;31351497;28;20045;-82
2022/04/14 19:18:28;;;;;;;14.57;6.93;;;;;;;9.41;100.00;100625.44;31370816;28;20096;-82
2022/04/14 19:33:33;;;;;;;13.97;8.10;;;;;;;9.42;100.00;100643.22;31388924;28;20045;-80
2022/04/14 19:48:36;;;;;;;10.23;6.97;;;;;;;9.44;100.00;100638.19;31265593;28;20057;-82
2022/04/14 20:03:48;;;;;;;10.20;6.90;;;;;;;9.43;100.00;100658.31;31241669;28;20042;-82
2022/04/14 20:18:50;;;;;;;13.17;7.67;;;;;;;9.41;100.00;100657.94;31256445;28;20045;-80
2022/04/14 20:33:54;;;;;;;14.73;9.43;;;;;;;9.30;100.00;100657.22;31229061;28;20045;-82
2022/04/14 20:48:56;;;;;;;141.77;35.67;;;;;;;9.09;100.00;100664.28;31258698;28;20087;-82
2022/04/14 21:03:58;;;;;;;18.57;10.37;;;;;;;8.95;100.00;100666.31;31191884;28;20038;-84
2022/04/14 21:19:00;;;;;;;15.90;8.93;;;;;;;8.87;100.00;100681.78;31210328;28;20084;-81
2022/04/14 21:34:02;;;;;;;20.87;8.87;;;;;;;8.73;100.00;100696.16;31278175;28;20397;-80
2022/04/14 21:49:04;;;;;;;15.03;9.00;;;;;;;8.65;100.00;100683.03;31383557;28;20055;-81
2022/04/14 22:04:09;;;;;;;16.30;9.53;;;;;;;8.62;100.00;100683.81;31422669;28;20036;-81
2022/04/14 22:19:13;;;;;;;15.77;9.10;;;;;;;8.44;100.00;100681.91;31364975;28;20086;-81
2022/04/14 22:34:15;;;;;;;16.10;8.37;;;;;;;8.42;100.00;100697.00;31317265;28;20340;-81
2022/04/14 22:49:17;;;;;;;13.23;7.43;;;;;;;8.34;100.00;100690.03;31299715;28;20091;-80
2022/04/14 23:04:34;;;;;;;12.37;8.57;;;;;;;8.24;100.00;100680.75;31302461;28;20493;-80
2022/04/14 23:19:39;;;;;;;12.10;7.67;;;;;;;8.17;100.00;100686.94;31292172;28;20053;-80
2022/04/14 23:34:41;;;;;;;14.40;7.80;;;;;;;8.10;100.00;100705.09;31271572;28;20055;-81
2022/04/14 23:49:42;;;;;;;13.07;7.63;;;;;;;8.04;100.00;100699.28;31369448;28;20401;-79
